Time;durP1;ratioP1;P1;durP2;ratioP2;P2;SDS_P1;SDS_P2;PMS_P1;PMS_P2;Temp;Humidity;BMP_temperature;BMP_pressure;BME280_temperature;BME280_humidity;BME280_pressure;Samples;Min_cycle;Max_cycle;Signal;HPM_P1;HPM_P2
2022/06/21 00:51:24;;;;;;;2.92;2.00;;;;;;;;;;6268902;22;20210;-92
2022/06/21 00:54:34;;;;;;;2.95;1.80;;;;;;;;;;6273559;22;20248;-91
2022/06/21 00:57:44;;;;;;;2.40;1.60;;;;;;;;;;6275206;22;20232;-91
2022/06/21 01:00:57;;;;;;;4.18;1.80;;;;;;;;;;6274390;22;20177;-92
2022/06/21 01:04:04;;;;;;;2.30;1.70;;;;;;;;;;6274305;22;20204;-92
2022/06/21 01:07:13;;;;;;;4.75;1.85;;;;;;;;;;6275090;22;20200;-91
2022/06/21 01:10:18;;;;;;;3.38;1.50;;;;;;;;;;6276318;22;20208;-93
2022/06/21 01:13:25;;;;;;;2.00;1.40;;;;;;;;;;6275294;22;20193;-91
2022/06/21 01:16:32;;;;;;;4.07;1.40;;;;;;;;;;6275760;22;20248;-92
2022/06/21 01:19:39;;;;;;;3.85;1.70;;;;;;;;;;6276008;22;20161;-93
2022/06/21 01:27:06;;;;;;;3.45;1.73;;;;;;;;;;6291243;22;20154;-92
2022/06/21 01:30:12;;;;;;;3.53;2.17;;;;;;;;;;6273793;22;20158;-91
2022/06/21 01:33:19;;;;;;;2.53;1.45;;;;;;;;;;6272920;22;20238;-92
2022/06/21 01:36:26;;;;;;;3.65;2.05;;;;;;;;;;6273614;22;20628;-91
2022/06/21 01:39:34;;;;;;;3.38;1.70;;;;;;;;;;6272841;22;20604;-94
2022/06/21 01:42:44;;;;;;;3.83;1.63;;;;;;;;;;6270294;22;20169;-93
2022/06/21 01:45:51;;;;;;;5.53;1.60;;;;;;;;;;6272045;22;20154;-92
2022/06/21 01:49:00;;;;;;;2.72;1.70;;;;;;;;;;6270421;22;20174;-92
2022/06/21 01:52:07;;;;;;;2.72;1.92;;;;;;;;;;6259057;22;20257;-92
2022/06/21 01:55:15;;;;;;;6.30;1.88;;;;;;;;;;6258468;23;20167;-92
2022/06/21 01:58:23;;;;;;;4.25;1.50;;;;;;;;;;6258098;23;20182;-92
2022/06/21 02:01:32;;;;;;;5.47;2.10;;;;;;;;;;6259320;23;20154;-91
2022/06/21 02:04:40;;;;;;;6.05;1.80;;;;;;;;;;6258458;22;20162;-92
2022/06/21 02:07:47;;;;;;;4.65;2.22;;;;;;;;;;6260515;22;20150;-92
2022/06/21 02:10:53;;;;;;;2.67;1.88;;;;;;;;;;6259702;22;20166;-93
2022/06/21 02:17:27;;;;;;;3.72;1.92;;;;;;;;;;6263747;22;20201;-92
2022/06/21 02:20:35;;;;;;;4.10;1.90;;;;;;;;;;6263363;23;20170;-92
2022/06/21 02:23:41;;;;;;;3.22;1.73;;;;;;;;;;6264108;22;20215;-94
2022/06/21 02:26:47;;;;;;;3.00;1.70;;;;;;;;;;6263697;22;20171;-93
2022/06/21 02:29:54;;;;;;;5.20;2.00;;;;;;;;;;6263106;22;20174;-92
2022/06/21 02:33:02;;;;;;;4.35;1.75;;;;;;;;;;6263451;22;20161;-91
2022/06/21 02:36:09;;;;;;;10.68;1.95;;;;;;;;;;6262181;22;20195;-91
2022/06/21 02:39:17;;;;;;;4.80;1.92;;;;;;;;;;6262513;22;20166;-93
2022/06/21 02:42:24;;;;;;;9.07;2.22;;;;;;;;;;6263683;22;20174;-92
2022/06/21 02:45:33;;;;;;;2.40;1.83;;;;;;;;;;6263418;22;20170;-91
2022/06/21 02:48:42;;;;;;;4.60;2.05;;;;;;;;;;6263927;22;20178;-93
2022/06/21 02:51:50;;;;;;;6.28;2.03;;;;;;;;;;6275599;22;20185;-93
2022/06/21 02:54:57;;;;;;;6.38;2.00;;;;;;;;;;6276501;22;20205;-93
2022/06/21 02:58:07;;;;;;;5.28;2.10;;;;;;;;;;6276745;22;20197;-92
2022/06/21 03:01:18;;;;;;;4.13;1.70;;;;;;;;;;6277911;22;20185;-92
2022/06/21 03:04:27;;;;;;;5.65;1.83;;;;;;;;;;6277328;22;20660;-93
2022/06/21 03:07:34;;;;;;;3.58;1.90;;;;;;;;;;6276365;22;20220;-92
2022/06/21 03:10:41;;;;;;;4.28;2.10;;;;;;;;;;6276960;22;20243;-92
2022/06/21 03:13:47;;;;;;;4.25;1.75;;;;;;;;;;6276457;22;20188;-92
2022/06/21 03:16:54;;;;;;;7.53;2.00;;;;;;;;;;6277037;22;20194;-91
2022/06/21 03:20:00;;;;;;;9.95;2.00;;;;;;;;;;6276564;22;20205;-92
2022/06/21 03:23:06;;;;;;;4.22;2.03;;;;;;;;;;6275283;22;20191;-93
2022/06/21 03:26:13;;;;;;;4.95;1.80;;;;;;;;;;6275768;22;20173;-91
2022/06/21 03:29:20;;;;;;;3.30;1.73;;;;;;;;;;6276706;22;20192;-91
2022/06/21 03:32:28;;;;;;;5.28;1.88;;;;;;;;;;6277182;22;20205;-91
2022/06/21 03:35:35;;;;;;;4.95;2.03;;;;;;;;;;6274913;22;20228;-92
2022/06/21 03:38:41;;;;;;;2.72;1.75;;;;;;;;;;6275999;22;20172;-92
2022/06/21 03:41:47;;;;;;;7.00;2.47;;;;;;;;;;6275991;22;20161;-91
2022/06/21 03:44:55;;;;;;;3.58;2.00;;;;;;;;;;6275757;22;20166;-93
2022/06/21 03:48:05;;;;;;;6.75;1.80;;;;;;;;;;6275927;22;20173;-93
2022/06/21 03:51:11;;;;;;;3.72;1.85;;;;;;;;;;6277997;22;20205;-92
2022/06/21 03:54:19;;;;;;;4.80;1.70;;;;;;;;;;6275647;22;20174;-92
2022/06/21 03:57:26;;;;;;;3.13;1.60;;;;;;;;;;6275299;22;20186;-92
2022/06/21 04:00:33;;;;;;;3.40;1.73;;;;;;;;;;6276060;22;20161;-91
2022/06/21 04:03:42;;;;;;;2.80;1.75;;;;;;;;;;6275645;22;20241;-92
2022/06/21 04:06:54;;;;;;;6.35;2.00;;;;;;;;;;6276150;22;20182;-92
2022/06/21 04:10:02;;;;;;;5.25;1.73;;;;;;;;;;6275398;22;20170;-94
2022/06/21 04:13:11;;;;;;;3.53;1.60;;;;;;;;;;6275275;22;20166;-91
2022/06/21 04:16:18;;;;;;;4.30;1.40;;;;;;;;;;6275611;22;20162;-92
2022/06/21 04:19:28;;;;;;;3.33;2.00;;;;;;;;;;6275188;22;20213;-93
2022/06/21 04:22:37;;;;;;;4.60;1.70;;;;;;;;;;6276609;22;20623;-92
2022/06/21 04:25:46;;;;;;;2.80;1.40;;;;;;;;;;6274372;22;20166;-94
2022/06/21 04:28:55;;;;;;;3.72;1.73;;;;;;;;;;6275222;22;20165;-92
2022/06/21 04:32:04;;;;;;;3.35;1.65;;;;;;;;;;6274039;22;20173;-91
2022/06/21 04:35:13;;;;;;;2.80;1.77;;;;;;;;;;6274659;22;20202;-93
2022/06/21 04:38:22;;;;;;;5.50;1.75;;;;;;;;;;6275868;22;20640;-93
2022/06/21 04:41:32;;;;;;;5.13;1.63;;;;;;;;;;6273096;22;20173;-92
2022/06/21 04:44:39;;;;;;;8.05;1.80;;;;;;;;;;6273751;22;20149;-93
2022/06/21 04:47:47;;;;;;;3.22;1.30;;;;;;;;;;6273786;22;20173;-92
2022/06/21 04:50:59;;;;;;;4.43;1.60;;;;;;;;;;6278457;22;20234;-91
2022/06/21 04:54:12;;;;;;;2.85;1.38;;;;;;;;;;6275878;22;20232;-91
2022/06/21 04:57:21;;;;;;;4.35;1.45;;;;;;;;;;6275513;22;20236;-92
2022/06/21 05:00:26;;;;;;;5.65;1.60;;;;;;;;;;6274675;22;20166;-92
2022/06/21 05:03:35;;;;;;;6.65;1.50;;;;;;;;;;6275100;22;20154;-92
2022/06/21 05:06:42;;;;;;;4.68;1.55;;;;;;;;;;6276915;22;20173;-93
2022/06/21 05:09:48;;;;;;;2.35;1.50;;;;;;;;;;6275331;22;20161;-91
2022/06/21 05:12:54;;;;;;;3.10;1.48;;;;;;;;;;6274227;22;20169;-94
2022/06/21 05:16:01;;;;;;;5.35;1.70;;;;;;;;;;6275162;22;20157;-91
2022/06/21 15:07:58;;;;;;;7.75;5.35;;;;;;;;;;6264275;22;20214;-92
2022/06/21 15:11:52;;;;;;;2.22;1.08;;;;;;;;;;6278637;22;20185;-92
2022/06/21 15:15:24;;;;;;;2.78;1.10;;;;;;;;;;6276443;22;20174;-90
2022/06/21 15:18:56;;;;;;;2.75;1.00;;;;;;;;;;6293468;22;20558;-92
2022/06/21 15:22:55;;;;;;;3.70;1.10;;;;;;;;;;6294389;22;20166;-89
2022/06/21 15:26:29;;;;;;;2.90;0.93;;;;;;;;;;6276080;22;20238;-89
2022/06/21 15:29:42;;;;;;;2.25;1.00;;;;;;;;;;6294542;22;20219;-90
2022/06/21 15:32:51;;;;;;;2.30;0.98;;;;;;;;;;6276249;22;20234;-90
2022/06/21 15:39:47;;;;;;;5.90;1.00;;;;;;;;;;6276493;22;20648;-91
2022/06/21 15:50:12;;;;;;;1.35;0.85;;;;;;;;;;6273793;22;20165;-90
2022/06/21 15:50:27;;;;;;;3.75;1.15;;;;;;;;;;6273515;22;20170;-87
2022/06/21 15:53:37;;;;;;;2.05;1.13;;;;;;;;;;6292186;22;20205;-89
2022/06/21 15:56:50;;;;;;;2.75;1.13;;;;;;;;;;6280019;22;20149;-90
2022/06/21 16:00:08;;;;;;;4.28;1.00;;;;;;;;;;6275834;22;20240;-90
